Time;durP1;ratioP1;P1;durP2;ratioP2;P2;SDS_P1;SDS_P2;PMS_P1;PMS_P2;Temp;Humidity;BMP_temperature;BMP_pressure;BME280_temperature;BME280_humidity;BME280_pressure;Samples;Min_cycle;Max_cycle;Signal;HPM_P1;HPM_P2
2023/09/19 00:01:38;;;;;;;;;;;;;;;20.97;59.02;101045.19;4194682;28;19925;-67
2023/09/19 00:03:42;;;;;;;;;;;;;;;20.97;59.20;101039.81;4194082;28;19931;-67
2023/09/19 00:05:44;;;;;;;;;;;;;;;20.97;59.14;101047.00;4194575;28;19956;-67
2023/09/19 00:07:47;;;;;;;;;;;;;;;20.96;58.87;101053.31;4194313;28;19981;-68
2023/09/19 00:09:49;;;;;;;;;;;;;;;20.95;59.13;101054.28;4194483;28;19932;-67
2023/09/19 00:11:51;;;;;;;;;;;;;;;20.95;59.38;101056.97;4194393;28;20361;-68
2023/09/19 00:13:53;;;;;;;;;;;;;;;20.95;59.26;101054.28;4194478;28;19932;-68
2023/09/19 00:15:55;;;;;;;;;;;;;;;20.93;58.87;101059.75;4176644;28;19925;-67
2023/09/19 00:17:56;;;;;;;;;;;;;;;20.94;59.14;101060.63;4193904;28;19931;-67
2023/09/19 00:19:58;;;;;;;;;;;;;;;20.93;59.11;101050.88;4194025;27;19931;-67
2023/09/19 00:21:59;;;;;;;;;;;;;;;20.93;59.03;101061.59;4194367;28;19928;-68
2023/09/19 00:24:01;;;;;;;;;;;;;;;20.92;59.07;101063.38;4194114;28;19931;-67
2023/09/19 00:26:03;;;;;;;;;;;;;;;20.93;59.16;101058.91;4194601;28;19924;-67
2023/09/19 00:28:07;;;;;;;;;;;;;;;20.92;58.90;101062.56;4194155;28;20350;-67
2023/09/19 00:30:14;;;;;;;;;;;;;;;20.92;59.25;101067.91;4194171;28;19931;-67
2023/09/19 00:32:15;;;;;;;;;;;;;;;20.90;59.04;101068.84;4193973;28;19950;-67
2023/09/19 00:34:17;;;;;;;;;;;;;;;20.90;59.03;101071.53;4194327;27;20027;-68
2023/09/19 00:36:18;;;;;;;;;;;;;;;20.90;59.23;101068.84;4193916;28;19929;-68
2023/09/19 00:38:22;;;;;;;;;;;;;;;20.89;58.72;101067.16;4194086;28;19932;-68
2023/09/19 00:40:24;;;;;;;;;;;;;;;20.89;58.97;101063.63;4194009;28;19932;-68
2023/09/19 00:42:25;;;;;;;;;;;;;;;20.89;59.17;101069.81;4194161;28;19931;-67
2023/09/19 00:44:27;;;;;;;;;;;;;;;20.88;58.84;101073.47;4193964;28;19971;-68
2023/09/19 00:46:30;;;;;;;;;;;;;;;20.88;58.97;101070.78;4193812;28;19935;-67
2023/09/19 00:48:32;;;;;;;;;;;;;;;20.87;58.84;101077.09;4193918;28;19929;-67
2023/09/19 00:50:34;;;;;;;;;;;;;;;20.87;58.93;101073.56;4194037;28;19925;-67
2023/09/19 00:52:38;;;;;;;;;;;;;;;20.87;58.98;101076.25;4194003;28;19925;-67
2023/09/19 00:54:40;;;;;;;;;;;;;;;20.85;59.01;101073.69;4193938;28;19976;-67
2023/09/19 00:56:42;;;;;;;;;;;;;;;20.85;59.02;101075.50;4193974;28;19932;-68
2023/09/19 00:58:44;;;;;;;;;;;;;;;20.85;58.96;101081.72;4194019;28;19950;-67
2023/09/19 01:00:47;;;;;;;;;;;;;;;20.85;58.92;101079.03;4193486;28;19977;-68
2023/09/19 01:02:49;;;;;;;;;;;;;;;20.84;58.80;101080.00;4196418;28;20369;-67
2023/09/19 01:04:51;;;;;;;;;;;;;;;20.84;59.02;101071.13;4196690;28;20307;-68
2023/09/19 01:06:53;;;;;;;;;;;;;;;20.83;59.07;101080.13;4197139;28;19931;-67
2023/09/19 01:08:55;;;;;;;;;;;;;;;20.82;59.06;101073.06;4196938;28;20370;-68
2023/09/19 01:11:00;;;;;;;;;;;;;;;20.82;59.12;101084.59;4196575;28;19975;-67
2023/09/19 01:13:14;;;;;;;;;;;;;;;20.81;58.90;101080.22;4196746;28;19981;-67
2023/09/19 01:15:18;;;;;;;;;;;;;;;20.80;58.93;101086.53;4196267;28;19924;-67
2023/09/19 01:17:23;;;;;;;;;;;;;;;20.81;59.00;101080.22;4196583;28;20118;-68
2023/09/19 01:19:37;;;;;;;;;;;;;;;20.81;58.92;101087.41;4196555;28;20312;-67
2023/09/19 01:21:55;;;;;;;;;;;;;;;20.80;58.80;101083.00;4196165;28;19937;-67
2023/09/19 01:24:05;;;;;;;;;;;;;;;20.78;59.00;101084.94;4178623;28;19929;-67
2023/09/19 01:26:10;;;;;;;;;;;;;;;20.77;59.00;101078.75;4196536;28;20312;-67
2023/09/19 01:28:41;;;;;;;;;;;;;;;20.78;58.52;101082.25;4196607;28;19928;-67
2023/09/19 01:30:44;;;;;;;;;;;;;;;20.77;58.81;101083.22;4204132;28;20461;-69
2023/09/19 01:32:46;;;;;;;;;;;;;;;20.76;58.83;101079.72;4196481;28;19932;-68
2023/09/19 01:34:52;;;;;;;;;;;;;;;20.76;58.53;101073.53;4196477;28;19950;-68
2023/09/19 01:36:54;;;;;;;;;;;;;;;20.75;58.64;101080.66;4196243;28;19924;-67
2023/09/19 01:39:05;;;;;;;;;;;;;;;20.74;58.94;101085.19;4196391;27;20413;-68
2023/09/19 01:41:12;;;;;;;;;;;;;;;20.74;58.85;101087.84;4196400;28;19996;-67
2023/09/19 01:43:43;;;;;;;;;;;;;;;20.74;58.78;101089.66;4196278;28;19932;-67
2023/09/19 01:45:44;;;;;;;;;;;;;;;20.74;58.88;101086.97;4204482;28;19967;-67
2023/09/19 01:47:49;;;;;;;;;;;;;;;20.72;58.77;101087.09;4196121;28;19929;-67
2023/09/19 01:50:12;;;;;;;;;;;;;;;20.73;58.63;101093.31;4196186;28;19928;-67
2023/09/19 01:52:16;;;;;;;;;;;;;;;20.72;58.91;101089.78;4196349;28;19987;-66
2023/09/19 01:54:24;;;;;;;;;;;;;;;20.71;58.58;101093.38;4196037;28;19924;-67
2023/09/19 01:56:30;;;;;;;;;;;;;;;20.71;58.80;101104.06;4196116;28;19929;-67
2023/09/19 01:58:42;;;;;;;;;;;;;;;20.71;58.73;101104.06;4195722;27;19936;-67
2023/09/19 02:00:47;;;;;;;;;;;;;;;20.71;58.97;101103.22;4196003;27;19931;-67
2023/09/19 02:02:50;;;;;;;;;;;;;;;20.70;58.91;101106.84;4196242;28;19973;-68
2023/09/19 02:04:52;;;;;;;;;;;;;;;20.69;58.47;101102.47;4196076;28;19943;-68
2023/09/19 02:06:54;;;;;;;;;;;;;;;20.70;58.84;101109.53;4195992;28;20426;-68
2023/09/19 02:08:56;;;;;;;;;;;;;;;20.68;58.67;101114.13;4196000;28;19928;-67
2023/09/19 02:10:57;;;;;;;;;;;;;;;20.68;58.52;101112.31;4196011;28;19925;-68
2023/09/19 02:12:59;;;;;;;;;;;;;;;20.68;58.86;101108.78;4195034;28;20044;-68
2023/09/19 02:15:00;;;;;;;;;;;;;;;20.68;58.92;101114.13;4195404;28;19925;-67
2023/09/19 02:17:06;;;;;;;;;;;;;;;20.67;58.93;101107.06;4195643;28;19981;-68
2023/09/19 02:19:08;;;;;;;;;;;;;;;20.67;58.87;101104.38;4195594;28;20008;-67
2023/09/19 02:21:12;;;;;;;;;;;;;;;20.66;58.54;101100.03;4195570;27;19935;-67
2023/09/19 02:23:15;;;;;;;;;;;;;;;20.66;58.72;101105.38;4195804;28;19924;-67
2023/09/19 02:25:19;;;;;;;;;;;;;;;20.66;58.76;101100.03;4195651;28;19931;-68
2023/09/19 02:27:21;;;;;;;;;;;;;;;20.65;58.44;101095.66;4195732;28;19925;-67
2023/09/19 02:29:22;;;;;;;;;;;;;;;20.65;58.52;101103.66;4195247;28;19949;-67
2023/09/19 02:31:24;;;;;;;;;;;;;;;20.64;58.88;101102.78;4195862;28;20389;-67
2023/09/19 02:33:26;;;;;;;;;;;;;;;20.64;58.82;101102.78;4195650;28;19924;-67
2023/09/19 02:35:28;;;;;;;;;;;;;;;20.64;58.76;101108.13;4195742;28;20400;-67
2023/09/19 02:37:30;;;;;;;;;;;;;;;20.62;58.51;101104.75;4195616;28;19924;-68
2023/09/19 02:39:32;;;;;;;;;;;;;;;20.62;58.86;101103.88;4195498;28;20373;-67
2023/09/19 02:41:34;;;;;;;;;;;;;;;20.62;58.86;101104.75;4177854;28;19929;-67
2023/09/19 02:43:36;;;;;;;;;;;;;;;20.61;58.47;101103.03;4195044;28;19924;-67
2023/09/19 02:45:38;;;;;;;;;;;;;;;20.61;58.45;101100.38;4195598;28;19924;-68
2023/09/19 02:47:40;;;;;;;;;;;;;;;20.59;58.76;101100.44;4177729;28;19968;-67
2023/09/19 02:49:42;;;;;;;;;;;;;;;20.60;58.84;101104.00;4177775;28;20412;-67
2023/09/19 02:51:44;;;;;;;;;;;;;;;20.59;58.59;101102.28;4195504;28;20335;-67
2023/09/19 02:53:47;;;;;;;;;;;;;;;20.59;58.40;101103.13;4195223;28;20412;-67
2023/09/19 02:55:49;;;;;;;;;;;;;;;20.58;58.80;101106.78;4210781;28;19924;-67
2023/09/19 02:57:52;;;;;;;;;;;;;;;20.59;58.68;101111.13;4194759;28;19928;-67
2023/09/19 02:59:53;;;;;;;;;;;;;;;20.58;58.64;101106.78;4195459;28;20316;-67
2023/09/19 03:01:55;;;;;;;;;;;;;;;20.57;58.55;101102.41;4195300;28;19924;-67
2023/09/19 03:03:56;;;;;;;;;;;;;;;20.57;58.77;101101.53;4195130;28;19924;-67
2023/09/19 03:05:58;;;;;;;;;;;;;;;20.58;58.60;101103.25;4195071;28;19932;-67
2023/09/19 03:08:03;;;;;;;;;;;;;;;20.57;58.68;101104.19;4195185;28;19928;-67
2023/09/19 03:10:06;;;;;;;;;;;;;;;20.56;58.77;101103.34;4195152;28;20022;-66
2023/09/19 03:12:08;;;;;;;;;;;;;;;20.55;58.56;101104.31;4195018;27;19925;-67
2023/09/19 03:14:10;;;;;;;;;;;;;;;20.55;58.65;101101.66;4195183;27;19925;-67
2023/09/19 03:16:14;;;;;;;;;;;;;;;20.54;58.63;101097.25;4194979;28;19976;-67
2023/09/19 03:18:16;;;;;;;;;;;;;;;20.55;58.77;101106.16;4195091;28;19924;-67
2023/09/19 03:20:18;;;;;;;;;;;;;;;20.53;58.58;101098.22;4194812;28;20398;-67
2023/09/19 03:22:20;;;;;;;;;;;;;;;20.54;58.70;101099.09;4195006;28;19925;-66
2023/09/19 03:24:23;;;;;;;;;;;;;;;20.53;58.53;101095.56;4194820;28;20369;-67
2023/09/19 03:26:26;;;;;;;;;;;;;;;20.52;58.36;101099.22;4194885;27;20019;-66
2023/09/19 03:28:28;;;;;;;;;;;;;;;20.53;58.35;101106.25;4210549;28;20003;-67
2023/09/19 03:30:31;;;;;;;;;;;;;;;20.51;58.45;101105.50;4195034;28;19928;-67
2023/09/19 03:32:32;;;;;;;;;;;;;;;20.52;58.60;101101.88;4194648;28;19928;-67
2023/09/19 03:34:35;;;;;;;;;;;;;;;20.51;58.73;101104.63;4194842;28;19932;-66
2023/09/19 03:36:37;;;;;;;;;;;;;;;20.50;58.35;101092.25;4194793;28;20393;-66
2023/09/19 03:38:38;;;;;;;;;;;;;;;20.51;58.62;101099.28;4194783;28;19924;-67
2023/09/19 03:40:40;;;;;;;;;;;;;;;20.49;58.57;101101.25;4194327;28;20011;-65
2023/09/19 03:42:42;;;;;;;;;;;;;;;20.49;58.49;101098.56;4194766;28;19946;-66
2023/09/19 03:44:43;;;;;;;;;;;;;;;20.49;58.22;101101.25;4194444;28;19929;-66
2023/09/19 03:46:45;;;;;;;;;;;;;;;20.48;58.50;101100.38;4194582;28;19932;-66
2023/09/19 03:48:46;;;;;;;;;;;;;;;20.48;58.25;101099.53;4194526;28;19960;-66
2023/09/19 03:50:48;;;;;;;;;;;;;;;20.47;58.23;101095.16;4194563;28;20250;-66
2023/09/19 03:52:50;;;;;;;;;;;;;;;20.47;58.42;101097.81;4194654;28;19925;-66
2023/09/19 03:54:51;;;;;;;;;;;;;;;20.46;58.25;101101.44;4194291;27;20381;-65
2023/09/19 03:56:53;;;;;;;;;;;;;;;20.46;58.44;101101.44;4194464;28;19935;-66
2023/09/19 03:58:55;;;;;;;;;;;;;;;20.46;58.59;101098.78;4177032;28;19998;-67
2023/09/19 04:00:58;;;;;;;;;;;;;;;20.46;58.64;101096.09;4194593;28;20481;-67
2023/09/19 04:03:02;;;;;;;;;;;;;;;20.45;58.16;101095.28;4194591;27;20396;-67
2023/09/19 04:05:04;;;;;;;;;;;;;;;20.43;58.26;101089.16;4194649;28;20019;-66
2023/09/19 04:07:05;;;;;;;;;;;;;;;20.43;58.45;101094.50;4194446;28;19928;-66
2023/09/19 04:09:07;;;;;;;;;;;;;;;20.42;58.41;101093.63;4194179;28;20433;-67
2023/09/19 04:11:08;;;;;;;;;;;;;;;20.42;58.07;101082.13;4194251;28;19929;-65
2023/09/19 04:13:10;;;;;;;;;;;;;;;20.42;58.42;101085.63;4194412;28;19928;-66
2023/09/19 04:15:13;;;;;;;;;;;;;;;20.41;58.41;101073.25;4194300;28;20400;-68
2023/09/19 04:17:14;;;;;;;;;;;;;;;20.41;58.33;101083.06;4194217;28;19932;-66
2023/09/19 04:19:17;;;;;;;;;;;;;;;20.40;58.51;101087.56;4194401;28;19924;-66
2023/09/19 04:21:19;;;;;;;;;;;;;;;20.40;58.46;101082.22;4193981;28;19932;-67
2023/09/19 04:23:20;;;;;;;;;;;;;;;20.40;58.43;101081.38;4194397;28;20028;-66
2023/09/19 04:25:22;;;;;;;;;;;;;;;20.40;58.16;101086.69;4193801;28;19977;-66
2023/09/19 04:27:23;;;;;;;;;;;;;;;20.39;58.36;101088.53;4194324;28;19959;-66
2023/09/19 04:29:27;;;;;;;;;;;;;;;20.40;58.20;101092.03;4194325;28;19925;-66
2023/09/19 04:31:29;;;;;;;;;;;;;;;20.39;58.31;101091.22;4194201;28;19928;-66
2023/09/19 04:33:31;;;;;;;;;;;;;;;20.38;58.51;101094.84;4194154;28;19973;-66
2023/09/19 04:35:32;;;;;;;;;;;;;;;20.38;58.25;101097.50;4194318;28;19932;-66
2023/09/19 04:37:38;;;;;;;;;;;;;;;20.38;58.29;101094.84;4196087;28;19973;-66
2023/09/19 04:39:39;;;;;;;;;;;;;;;20.38;58.51;101088.66;4196997;28;19969;-66
2023/09/19 04:41:41;;;;;;;;;;;;;;;20.37;58.44;101087.78;4197032;28;19960;-66
2023/09/19 04:43:43;;;;;;;;;;;;;;;20.37;58.51;101090.44;4197085;28;19928;-67
2023/09/19 04:45:44;;;;;;;;;;;;;;;20.36;58.32;101088.75;4196776;28;19970;-66
2023/09/19 04:47:46;;;;;;;;;;;;;;;20.35;58.28;101095.06;4197046;28;19925;-66
2023/09/19 04:49:47;;;;;;;;;;;;;;;20.36;58.36;101095.91;4197094;28;20356;-66
2023/09/19 04:51:49;;;;;;;;;;;;;;;20.36;58.29;101098.59;4197113;28;19976;-67
2023/09/19 04:53:50;;;;;;;;;;;;;;;20.35;58.39;101100.41;4178773;28;20019;-67
2023/09/19 04:55:52;;;;;;;;;;;;;;;20.35;58.28;101105.75;4196828;28;19979;-66
2023/09/19 04:57:55;;;;;;;;;;;;;;;20.34;58.05;101104.03;4196974;28;19936;-67
2023/09/19 04:59:57;;;;;;;;;;;;;;;20.34;58.28;101108.50;4196881;28;19971;-66
2023/09/19 05:01:58;;;;;;;;;;;;;;;20.34;58.01;101111.19;4196843;28;20011;-66
2023/09/19 05:04:00;;;;;;;;;;;;;;;20.33;58.30;101113.00;4196870;28;19932;-66
2023/09/19 05:06:02;;;;;;;;;;;;;;;20.22;58.07;101100.41;4196645;28;19924;-66
2023/09/19 05:08:05;;;;;;;;;;;;;;;20.32;58.25;101113.97;4211938;28;19936;-66
2023/09/19 05:10:07;;;;;;;;;;;;;;;20.32;58.19;101116.66;4196718;28;19924;-67
2023/09/19 05:12:10;;;;;;;;;;;;;;;20.31;58.08;101109.59;4196725;28;20011;-67
2023/09/19 05:14:12;;;;;;;;;;;;;;;20.31;58.37;101119.44;4196585;28;19925;-67
2023/09/19 05:16:13;;;;;;;;;;;;;;;20.31;58.14;101111.41;4196644;28;20450;-67
2023/09/19 05:18:15;;;;;;;;;;;;;;;20.30;58.22;101115.06;4196793;28;19924;-67
2023/09/19 05:20:24;;;;;;;;;;;;;;;20.30;58.23;101115.88;4196366;27;19925;-67
2023/09/19 05:22:28;;;;;;;;;;;;;;;20.29;58.18;101127.53;4196467;28;19931;-67
2023/09/19 05:24:30;;;;;;;;;;;;;;;20.29;58.05;101118.69;4196693;28;19925;-67
2023/09/19 05:26:32;;;;;;;;;;;;;;;20.29;57.97;101124.03;4196499;28;19924;-67
2023/09/19 05:28:34;;;;;;;;;;;;;;;20.29;58.04;101132.03;4196501;28;19934;-67
2023/09/19 05:30:38;;;;;;;;;;;;;;;20.28;58.14;101125.84;4196487;28;19969;-67
2023/09/19 05:32:40;;;;;;;;;;;;;;;20.26;58.01;101125.94;4196638;28;20172;-68
2023/09/19 05:34:42;;;;;;;;;;;;;;;20.26;57.97;101125.94;4196354;28;19931;-67
2023/09/19 05:36:44;;;;;;;;;;;;;;;20.26;58.17;101125.09;4196051;28;19924;-67
2023/09/19 05:38:48;;;;;;;;;;;;;;;20.26;58.28;101131.28;4196432;28;19928;-67
2023/09/19 05:40:50;;;;;;;;;;;;;;;20.26;58.02;101130.44;4196400;28;20012;-67
2023/09/19 05:42:51;;;;;;;;;;;;;;;20.25;58.25;101134.91;4196356;28;19960;-66
2023/09/19 05:44:53;;;;;;;;;;;;;;;20.24;58.30;101130.56;4196390;28;20003;-67
2023/09/19 05:46:56;;;;;;;;;;;;;;;20.24;58.19;101138.56;4196363;28;19948;-67
2023/09/19 05:48:58;;;;;;;;;;;;;;;20.24;57.94;101130.56;4194918;28;19929;-67
2023/09/19 05:51:00;;;;;;;;;;;;;;;20.24;58.27;101140.34;4195975;28;20306;-67
2023/09/19 05:53:04;;;;;;;;;;;;;;;20.23;58.23;101142.19;4196315;28;19924;-67
2023/09/19 05:55:07;;;;;;;;;;;;;;;20.24;58.28;101138.56;4196113;28;19925;-67
2023/09/19 05:57:08;;;;;;;;;;;;;;;20.23;58.24;101144.00;4196021;28;19979;-67
2023/09/19 05:59:10;;;;;;;;;;;;;;;20.22;58.18;101145.81;4196116;28;19973;-67
2023/09/19 06:01:12;;;;;;;;;;;;;;;20.22;58.25;101143.16;4196087;27;19936;-67
2023/09/19 06:03:14;;;;;;;;;;;;;;;20.22;57.95;101148.50;4195920;28;19928;-67
2023/09/19 06:05:16;;;;;;;;;;;;;;;20.22;58.15;101144.94;4195410;28;19932;-67
2023/09/19 06:07:17;;;;;;;;;;;;;;;20.22;58.24;101147.63;4195785;28;20008;-67
2023/09/19 06:09:19;;;;;;;;;;;;;;;20.21;58.14;101156.63;4196384;28;19928;-67
2023/09/19 06:11:26;;;;;;;;;;;;;;;20.21;57.98;101149.44;4195965;27;20240;-67
2023/09/19 06:13:28;;;;;;;;;;;;;;;20.20;57.98;101153.06;4195778;28;19944;-67
2023/09/19 06:15:32;;;;;;;;;;;;;;;20.21;58.08;101156.63;4195895;28;20364;-67
2023/09/19 06:17:37;;;;;;;;;;;;;;;20.20;57.77;101158.41;4195579;28;19929;-66
2023/09/19 06:19:39;;;;;;;;;;;;;;;20.20;57.84;101158.41;4195501;28;20373;-66
2023/09/19 06:21:40;;;;;;;;;;;;;;;20.19;57.80;101159.38;4195835;28;19936;-67
2023/09/19 06:23:42;;;;;;;;;;;;;;;20.20;58.10;101154.91;4195761;28;20015;-67
2023/09/19 06:25:43;;;;;;;;;;;;;;;20.19;57.99;101164.72;4195660;28;20011;-67
2023/09/19 06:27:46;;;;;;;;;;;;;;;20.18;58.00;101154.97;4195822;27;19935;-67
2023/09/19 06:29:47;;;;;;;;;;;;;;;20.18;57.93;101163.00;4195815;28;20403;-67
2023/09/19 06:31:49;;;;;;;;;;;;;;;20.18;58.01;101157.66;4195780;28;19977;-66
2023/09/19 06:33:50;;;;;;;;;;;;;;;20.18;57.92;101160.31;4195409;28;20312;-67
2023/09/19 06:35:57;;;;;;;;;;;;;;;20.18;57.90;101163.00;4195416;28;20296;-67
2023/09/19 06:37:59;;;;;;;;;;;;;;;20.17;57.82;101169.31;4195691;28;19932;-67
2023/09/19 06:40:00;;;;;;;;;;;;;;;20.18;57.86;101168.34;4195326;28;19948;-67
2023/09/19 06:42:03;;;;;;;;;;;;;;;20.18;57.55;101171.00;4195468;28;20290;-69
2023/09/19 06:44:05;;;;;;;;;;;;;;;20.18;57.92;101172.84;4195468;28;19924;-69
2023/09/19 06:46:07;;;;;;;;;;;;;;;20.18;57.81;101167.50;4195353;28;20374;-67
2023/09/19 06:48:10;;;;;;;;;;;;;;;20.18;57.71;101176.34;4195398;28;19931;-68
2023/09/19 06:50:14;;;;;;;;;;;;;;;20.09;57.55;101158.31;4194879;28;19924;-70
2023/09/19 06:52:15;;;;;;;;;;;;;;;20.18;57.12;101170.16;4177818;28;19929;-66
2023/09/19 06:54:17;;;;;;;;;;;;;;;20.19;57.37;101174.56;4195341;28;19931;-65
2023/09/19 06:56:24;;;;;;;;;;;;;;;20.19;57.56;101177.22;4195549;28;19932;-66
2023/09/19 06:58:26;;;;;;;;;;;;;;;20.20;57.34;101181.59;4195442;28;19932;-64
2023/09/19 07:00:31;;;;;;;;;;;;;;;20.18;57.37;101171.00;4194916;28;19928;-66
2023/09/19 07:02:32;;;;;;;;;;;;;;;20.19;57.23;101179.88;4195060;28;20401;-67
2023/09/19 07:04:34;;;;;;;;;;;;;;;20.18;57.20;101184.34;4194935;28;19935;-68
2023/09/19 07:06:36;;;;;;;;;;;;;;;20.18;56.78;101184.34;4195254;28;19932;-67
2023/09/19 07:08:38;;;;;;;;;;;;;;;20.19;56.73;101187.91;4195007;28;20353;-67
2023/09/19 07:10:49;;;;;;;;;;;;;;;20.20;56.58;101186.94;4195303;28;20213;-66
2023/09/19 07:13:01;;;;;;;;;;;;;;;20.19;56.65;101186.06;4195078;28;20334;-65
2023/09/19 07:15:03;;;;;;;;;;;;;;;20.20;56.50;101184.28;4194868;28;19924;-66
2023/09/19 07:17:04;;;;;;;;;;;;;;;20.19;56.40;101182.56;4195051;28;19924;-66
2023/09/19 07:19:06;;;;;;;;;;;;;;;20.19;56.44;101177.22;4177176;28;19936;-66
2023/09/19 07:21:07;;;;;;;;;;;;;;;20.19;56.79;101180.72;4194949;27;19928;-65
2023/09/19 07:23:09;;;;;;;;;;;;;;;20.18;56.92;101171.00;4194922;28;19924;-65
2023/09/19 07:25:10;;;;;;;;;;;;;;;20.19;56.67;101170.06;4194762;28;19924;-66
2023/09/19 07:27:12;;;;;;;;;;;;;;;20.19;56.75;101166.53;4195138;28;19924;-67
2023/09/19 07:29:13;;;;;;;;;;;;;;;20.19;56.72;101164.72;4195162;28;19997;-66
2023/09/19 07:31:16;;;;;;;;;;;;;;;20.19;56.55;101162.03;4194931;28;19924;-66
2023/09/19 07:33:18;;;;;;;;;;;;;;;20.19;56.60;101175.41;4194504;28;19931;-66
2023/09/19 07:35:20;;;;;;;;;;;;;;;20.19;56.31;101170.06;4194908;28;20431;-66
2023/09/19 07:37:21;;;;;;;;;;;;;;;20.19;56.45;101171.88;4194674;28;19982;-66
2023/09/19 07:39:23;;;;;;;;;;;;;;;20.20;56.40;101171.75;4194925;28;20015;-66
2023/09/19 07:41:25;;;;;;;;;;;;;;;20.19;56.44;101166.53;4194574;28;20407;-66
2023/09/19 07:43:27;;;;;;;;;;;;;;;20.18;56.22;101162.16;4194885;28;19928;-66
2023/09/19 07:45:29;;;;;;;;;;;;;;;20.19;56.52;101169.22;4194537;28;19924;-66
2023/09/19 07:47:32;;;;;;;;;;;;;;;20.18;56.54;101164.81;4194551;28;19924;-67
2023/09/19 07:49:34;;;;;;;;;;;;;;;20.18;56.74;101163.00;4194650;28;19959;-67
2023/09/19 07:51:35;;;;;;;;;;;;;;;20.18;56.43;101164.81;4194715;28;19928;-67
2023/09/19 07:53:37;;;;;;;;;;;;;;;20.18;56.32;101165.66;4194615;28;19960;-67
2023/09/19 07:55:40;;;;;;;;;;;;;;;20.19;56.29;101166.53;4194493;28;19924;-66
2023/09/19 07:57:43;;;;;;;;;;;;;;;20.18;56.39;101162.16;4194588;28;19928;-66
2023/09/19 07:59:45;;;;;;;;;;;;;;;20.17;56.48;101166.66;4194567;28;20375;-66
2023/09/19 08:01:47;;;;;;;;;;;;;;;20.17;56.32;101173.78;4194270;27;19924;-66
2023/09/19 08:03:49;;;;;;;;;;;;;;;20.16;56.40;101170.28;4194262;28;19928;-66
2023/09/19 08:05:51;;;;;;;;;;;;;;;20.17;56.75;101173.78;4194491;28;20365;-66
2023/09/19 08:07:56;;;;;;;;;;;;;;;20.15;56.63;101165.91;4194363;28;20409;-66
2023/09/19 08:09:58;;;;;;;;;;;;;;;20.15;56.69;101171.25;4194481;28;19925;-66
2023/09/19 08:12:03;;;;;;;;;;;;;;;20.16;56.62;101172.06;4195641;28;19964;-66
2023/09/19 08:14:09;;;;;;;;;;;;;;;20.16;56.84;101169.41;4197490;28;19983;-66
2023/09/19 08:16:17;;;;;;;;;;;;;;;20.16;56.62;101162.28;4197063;28;19929;-66
2023/09/19 08:18:22;;;;;;;;;;;;;;;20.16;56.50;101164.06;4197456;27;19950;-66
2023/09/19 08:20:24;;;;;;;;;;;;;;;20.16;56.64;101164.06;4197217;28;19925;-66
2023/09/19 08:22:27;;;;;;;;;;;;;;;20.16;56.75;101164.06;4212880;28;20418;-66
2023/09/19 08:24:29;;;;;;;;;;;;;;;20.15;56.62;101171.25;4197467;28;20298;-66
2023/09/19 08:26:37;;;;;;;;;;;;;;;20.15;56.62;101171.25;4197315;28;19928;-66
2023/09/19 08:28:41;;;;;;;;;;;;;;;20.15;56.41;101173.91;4197168;28;19969;-66
2023/09/19 08:30:43;;;;;;;;;;;;;;;20.15;56.66;101171.25;4196761;28;19924;-66
2023/09/19 08:32:46;;;;;;;;;;;;;;;20.16;56.67;101172.94;4197065;28;19925;-66
2023/09/19 08:34:48;;;;;;;;;;;;;;;20.17;56.40;101179.13;4197327;28;19982;-66
2023/09/19 08:36:56;;;;;;;;;;;;;;;20.17;56.23;101169.31;4197564;28;19925;-66
2023/09/19 08:38:58;;;;;;;;;;;;;;;20.19;56.59;101172.72;4197046;28;19931;-66
2023/09/19 08:41:00;;;;;;;;;;;;;;;20.18;56.47;101170.16;4197120;28;19925;-66
2023/09/19 08:43:02;;;;;;;;;;;;;;;20.19;56.60;101169.22;4197087;28;19964;-66
2023/09/19 08:45:04;;;;;;;;;;;;;;;20.20;56.38;101179.78;4196763;28;20389;-66
2023/09/19 08:47:16;;;;;;;;;;;;;;;20.21;56.73;101173.47;4197044;28;19979;-65
2023/09/19 08:49:32;;;;;;;;;;;;;;;20.23;56.28;101181.38;4197043;28;19928;-66
2023/09/19 08:51:44;;;;;;;;;;;;;;;20.24;56.44;101178.63;4197210;27;19931;-66
2023/09/19 08:53:53;;;;;;;;;;;;;;;20.25;56.63;101179.47;4196989;28;19924;-65
2023/09/19 08:55:57;;;;;;;;;;;;;;;20.26;56.54;101178.50;4196844;28;19972;-66
2023/09/19 08:58:04;;;;;;;;;;;;;;;20.27;56.75;101182.91;4197026;28;19928;-66
2023/09/19 09:00:10;;;;;;;;;;;;;;;20.27;56.43;101180.22;4196603;28;19932;-66
2023/09/19 09:02:12;;;;;;;;;;;;;;;20.26;56.62;101183.84;4196694;28;19928;-66
2023/09/19 09:04:13;;;;;;;;;;;;;;;20.25;56.35;101166.94;4196915;28;19924;-66
2023/09/19 09:06:16;;;;;;;;;;;;;;;20.25;56.44;101177.63;4196775;28;20416;-66
2023/09/19 09:08:20;;;;;;;;;;;;;;;20.25;56.42;101174.97;4196863;28;20047;-66
2023/09/19 09:10:22;;;;;;;;;;;;;;;20.26;56.47;101182.03;4196759;28;20301;-66
2023/09/19 09:12:25;;;;;;;;;;;;;;;20.27;56.42;101180.22;4196843;28;20000;-66
2023/09/19 09:14:27;;;;;;;;;;;;;;;20.27;56.46;101186.41;4196344;28;19947;-67
2023/09/19 09:16:29;;;;;;;;;;;;;;;20.27;56.45;101177.56;4196419;28;19959;-66
2023/09/19 09:18:31;;;;;;;;;;;;;;;20.27;56.40;101175.72;4196988;28;19948;-66
2023/09/19 09:20:33;;;;;;;;;;;;;;;20.26;56.50;101171.34;4196425;27;19931;-66
2023/09/19 09:22:36;;;;;;;;;;;;;;;20.27;56.18;101161.53;4196023;28;20397;-66
2023/09/19 09:24:50;;;;;;;;;;;;;;;20.27;56.06;101169.53;4196616;28;20323;-66
2023/09/19 09:26:53;;;;;;;;;;;;;;;20.27;56.41;101166.88;4196428;28;20015;-66
2023/09/19 09:28:59;;;;;;;;;;;;;;;20.27;56.12;101161.53;4179074;28;20477;-66
2023/09/19 09:31:08;;;;;;;;;;;;;;;20.26;56.20;101157.16;4196549;28;19925;-65
2023/09/19 09:33:11;;;;;;;;;;;;;;;20.27;56.25;101162.38;4196442;28;19942;-66
2023/09/19 09:35:15;;;;;;;;;;;;;;;20.27;56.35;101167.72;4196482;28;19925;-65
2023/09/19 09:37:20;;;;;;;;;;;;;;;20.27;56.36;101169.53;4196507;27;19928;-66
2023/09/19 09:39:32;;;;;;;;;;;;;;;20.28;56.41;101165.91;4196383;28;19924;-66
2023/09/19 09:41:39;;;;;;;;;;;;;;;20.29;56.00;101166.75;4196448;28;19925;-65
2023/09/19 09:43:44;;;;;;;;;;;;;;;20.29;56.26;101169.44;4195802;28;19928;-65
2023/09/19 09:45:56;;;;;;;;;;;;;;;20.29;56.08;101156.06;4196311;28;19924;-65
2023/09/19 09:47:58;;;;;;;;;;;;;;;20.30;56.17;101163.13;4196372;28;20430;-65
2023/09/19 09:50:07;;;;;;;;;;;;;;;20.31;56.33;101164.84;4196083;28;20060;-65
2023/09/19 09:52:16;;;;;;;;;;;;;;;20.31;55.86;101162.16;4196038;28;19925;-66
2023/09/19 09:54:21;;;;;;;;;;;;;;;20.31;55.97;101162.16;4196384;28;19931;-65
2023/09/19 09:56:24;;;;;;;;;;;;;;;20.32;56.06;101161.22;4196196;28;19932;-65
2023/09/19 09:58:29;;;;;;;;;;;;;;;20.31;56.18;101155.00;4195787;28;19950;-65
2023/09/19 10:00:42;;;;;;;;;;;;;;;20.32;56.18;101158.53;4196287;28;19931;-65
2023/09/19 10:02:46;;;;;;;;;;;;;;;20.30;56.10;101153.28;4195936;28;20351;-65
2023/09/19 10:04:51;;;;;;;;;;;;;;;20.32;56.24;101151.38;4178469;28;20390;-66
2023/09/19 10:06:53;;;;;;;;;;;;;;;20.33;56.32;101147.75;4196099;28;19924;-67
2023/09/19 10:09:10;;;;;;;;;;;;;;;20.35;56.14;101145.81;4196059;28;19976;-66
2023/09/19 10:11:16;;;;;;;;;;;;;;;20.36;56.04;101141.31;4195823;28;20385;-66
2023/09/19 10:13:21;;;;;;;;;;;;;;;20.35;56.04;101143.16;4195552;28;19928;-66
2023/09/19 10:15:26;;;;;;;;;;;;;;;20.36;56.00;101136.81;4195564;28;20308;-66
2023/09/19 10:17:30;;;;;;;;;;;;;;;20.36;56.19;101134.16;4195471;28;19947;-66
2023/09/19 10:19:34;;;;;;;;;;;;;;;20.37;55.98;101132.34;4195525;28;19928;-66
2023/09/19 10:21:36;;;;;;;;;;;;;;;20.37;56.00;101121.66;4195380;27;20007;-65
2023/09/19 10:23:40;;;;;;;;;;;;;;;20.39;55.98;101135.75;4195680;28;19932;-66
2023/09/19 10:25:43;;;;;;;;;;;;;;;20.38;55.48;101126.06;4195345;28;20417;-66
2023/09/19 10:27:45;;;;;;;;;;;;;;;20.38;55.61;101124.22;4195157;28;19924;-66
2023/09/19 10:29:49;;;;;;;;;;;;;;;20.39;55.75;101125.06;4195554;28;19969;-66
2023/09/19 10:31:53;;;;;;;;;;;;;;;20.40;55.68;101124.97;4195348;28;19939;-66
2023/09/19 10:33:55;;;;;;;;;;;;;;;20.40;55.54;101116.09;4194764;28;19931;-66